Time;durP1;ratioP1;P1;durP2;ratioP2;P2;SDS_P1;SDS_P2;PMS_P1;PMS_P2;Temp;Humidity;BMP_temperature;BMP_pressure;BME280_temperature;BME280_humidity;BME280_pressure;Samples;Min_cycle;Max_cycle;Signal;HPM_P1;HPM_P2
2023/03/30 00:00:56;;;;;;;2.00;1.80;;;-2.90;99.90;;;;;;4997191;28;20120;-73
2023/03/30 00:03:26;;;;;;;3.13;2.05;;;-3.00;99.90;;;;;;4994744;28;20128;-73
2023/03/30 00:05:55;;;;;;;2.38;2.10;;;-3.10;99.90;;;;;;4997426;28;20452;-73
2023/03/30 00:08:27;;;;;;;3.30;2.05;;;-3.20;99.90;;;;;;4991246;28;20689;-74
2023/03/30 00:11:00;;;;;;;3.47;1.88;;;-3.30;99.90;;;;;;5001260;28;20068;-74
2023/03/30 00:13:29;;;;;;;2.88;2.40;;;-3.30;99.90;;;;;;5011060;28;20104;-74
2023/03/30 00:15:57;;;;;;;2.20;1.98;;;-3.40;99.90;;;;;;5011113;28;20130;-73
2023/03/30 00:18:25;;;;;;;2.65;2.38;;;-3.40;99.90;;;;;;4993596;28;20092;-74
2023/03/30 00:20:53;;;;;;;2.50;1.80;;;-3.50;99.90;;;;;;5000780;28;20050;-74
2023/03/30 00:23:21;;;;;;;3.13;2.15;;;-3.50;99.90;;;;;;5000626;28;20049;-74
2023/03/30 00:25:48;;;;;;;4.55;2.05;;;-3.60;99.90;;;;;;5010943;28;20042;-74
2023/03/30 00:28:16;;;;;;;2.30;2.10;;;-3.60;99.90;;;;;;5010725;28;20084;-73
2023/03/30 00:30:45;;;;;;;3.88;2.05;;;-3.60;99.90;;;;;;5010966;28;20071;-73
2023/03/30 00:33:13;;;;;;;4.50;2.63;;;-3.70;99.90;;;;;;5009263;28;20538;-73
2023/03/30 00:35:40;;;;;;;3.60;1.95;;;-3.70;99.90;;;;;;5010981;28;20071;-73
2023/03/30 00:38:08;;;;;;;2.53;2.22;;;-3.70;99.90;;;;;;4995975;28;20049;-73
2023/03/30 00:40:37;;;;;;;3.88;2.58;;;-3.70;99.90;;;;;;4992104;28;20054;-73
2023/03/30 00:43:10;;;;;;;3.92;2.67;;;-3.70;99.90;;;;;;5010611;28;20054;-73
2023/03/30 00:45:39;;;;;;;2.55;2.17;;;-3.80;99.90;;;;;;5010912;28;20104;-72
2023/03/30 00:48:14;;;;;;;3.83;2.63;;;-3.80;99.90;;;;;;5009577;28;20456;-73
2023/03/30 00:50:46;;;;;;;4.95;2.33;;;-3.80;99.90;;;;;;5010504;28;20058;-72
2023/03/30 00:53:18;;;;;;;2.72;2.38;;;-3.80;99.90;;;;;;5010942;28;20099;-74
2023/03/30 00:55:49;;;;;;;3.40;2.95;;;-3.90;99.90;;;;;;5005381;28;20066;-73
2023/03/30 00:58:19;;;;;;;3.80;2.45;;;-3.90;99.90;;;;;;4990630;28;20057;-74
2023/03/30 01:00:47;;;;;;;4.10;2.78;;;-3.90;99.90;;;;;;5015875;28;20598;-73
2023/03/30 01:03:21;;;;;;;3.15;2.22;;;-3.90;99.90;;;;;;4989474;28;20081;-73
2023/03/30 01:05:49;;;;;;;4.82;3.22;;;-3.90;99.90;;;;;;4972820;28;20058;-73
2023/03/30 01:08:18;;;;;;;6.90;3.53;;;-4.00;99.90;;;;;;4998493;28;20527;-74
2023/03/30 01:10:47;;;;;;;4.53;3.22;;;-4.00;99.90;;;;;;5002871;28;20057;-73
2023/03/30 01:13:15;;;;;;;3.22;2.90;;;-4.00;99.90;;;;;;5009267;28;20060;-73
2023/03/30 01:16:01;;;;;;;6.95;3.05;;;-4.00;99.90;;;;;;5008876;28;20542;-73
2023/03/30 01:18:43;;;;;;;4.07;3.10;;;-4.00;99.90;;;;;;5010879;28;20464;-73
2023/03/30 01:21:58;;;;;;;5.50;3.70;;;-4.10;99.90;;;;;;5013239;28;20058;-72
2023/03/30 01:24:57;;;;;;;5.43;3.25;;;-4.10;99.90;;;;;;4992726;28;20057;-73
2023/03/30 01:27:50;;;;;;;3.85;2.63;;;-4.10;99.90;;;;;;5004566;28;20132;-73
2023/03/30 01:30:35;;;;;;;4.97;2.70;;;-4.10;99.90;;;;;;5007319;28;20084;-74
2023/03/30 01:33:43;;;;;;;4.43;2.95;;;-4.20;99.90;;;;;;5008865;28;20449;-73
2023/03/30 01:37:02;;;;;;;4.05;3.13;;;-4.20;99.90;;;;;;5002223;28;20050;-73
2023/03/30 01:39:43;;;;;;;5.47;3.38;;;-4.20;99.90;;;;;;4973318;28;20406;-73
2023/03/30 01:42:22;;;;;;;4.25;3.80;;;-4.20;99.90;;;;;;5007945;28;20054;-72
2023/03/30 01:45:01;;;;;;;4.60;3.58;;;-4.30;99.90;;;;;;4996068;28;20158;-73
2023/03/30 01:47:38;;;;;;;5.55;3.38;;;-4.30;99.90;;;;;;4991909;28;20042;-73
2023/03/30 01:50:12;;;;;;;4.80;3.55;;;-4.30;99.90;;;;;;5027361;28;20053;-72
2023/03/30 01:52:45;;;;;;;4.43;3.33;;;-4.30;99.90;;;;;;5002989;28;20605;-73
2023/03/30 01:55:19;;;;;;;4.95;3.55;;;-4.40;99.90;;;;;;4998783;28;20069;-72
2023/03/30 01:57:52;;;;;;;3.60;2.88;;;-4.40;99.90;;;;;;4997023;28;20056;-72
2023/03/30 02:00:23;;;;;;;3.75;3.28;;;-4.40;99.90;;;;;;5007850;28;20046;-73
2023/03/30 02:02:55;;;;;;;5.53;3.13;;;-4.40;99.90;;;;;;5004879;28;20121;-73
2023/03/30 02:05:24;;;;;;;4.97;3.65;;;-4.40;99.90;;;;;;5008954;28;20096;-73
2023/03/30 02:07:58;;;;;;;;;;;-4.40;99.90;;;;;;4992824;28;20053;-72
2023/03/30 02:10:31;;;;;;;5.78;2.70;;;-4.40;99.90;;;;;;4998587;28;19925;-73
2023/03/30 02:13:00;;;;;;;4.13;3.00;;;-4.40;99.90;;;;;;5012006;28;20104;-72
2023/03/30 02:15:37;;;;;;;3.92;3.20;;;-4.40;99.90;;;;;;5007996;28;20046;-72
2023/03/30 02:18:05;;;;;;;4.38;3.17;;;-4.40;99.90;;;;;;5010082;28;20050;-72
2023/03/30 02:20:34;;;;;;;3.90;3.47;;;-4.40;99.90;;;;;;5003337;28;20049;-72
2023/03/30 02:23:06;;;;;;;7.60;3.58;;;-4.40;99.90;;;;;;5001702;28;20050;-72
2023/03/30 02:25:38;;;;;;;3.72;3.13;;;-4.40;99.90;;;;;;5027060;28;20152;-72
2023/03/30 02:28:06;;;;;;;3.83;2.85;;;-4.40;99.90;;;;;;5012963;28;20061;-71
2023/03/30 02:30:36;;;;;;;3.47;3.17;;;-4.40;99.90;;;;;;5011533;28;20450;-71
2023/03/30 02:33:06;;;;;;;3.63;3.28;;;-4.40;99.90;;;;;;5013114;28;20052;-72
2023/03/30 02:35:55;;;;;;;3.85;3.30;;;-4.40;99.90;;;;;;5011637;28;20062;-73
2023/03/30 02:39:00;;;;;;;4.43;3.22;;;-4.40;99.90;;;;;;4991899;28;20093;-71
2023/03/30 02:41:52;;;;;;;4.70;3.53;;;-4.40;99.90;;;;;;5008093;28;20052;-73
2023/03/30 02:44:30;;;;;;;4.38;2.83;;;-4.40;99.90;;;;;;5011359;28;20061;-72
2023/03/30 02:47:07;;;;;;;4.30;3.10;;;-4.50;99.90;;;;;;5012808;28;20507;-72
2023/03/30 02:49:53;;;;;;;4.65;3.75;;;-4.50;99.90;;;;;;5010859;28;20050;-73
2023/03/30 02:52:42;;;;;;;5.28;3.58;;;-4.50;99.90;;;;;;5008319;28;20526;-73
2023/03/30 02:55:21;;;;;;;3.08;2.78;;;-4.60;99.90;;;;;;5002419;28;20054;-73
2023/03/30 02:58:03;;;;;;;4.03;3.30;;;-4.60;99.90;;;;;;5003509;28;20042;-74
2023/03/30 03:00:58;;;;;;;3.83;3.15;;;-4.60;99.90;;;;;;5007671;28;20042;-72
2023/03/30 03:03:37;;;;;;;4.70;3.30;;;-4.60;99.90;;;;;;5015669;28;20065;-73
2023/03/30 03:06:08;;;;;;;5.85;3.50;;;-4.60;99.90;;;;;;5005452;28;20053;-73
2023/03/30 03:08:40;;;;;;;;;;;-4.60;99.90;;;;;;4986704;28;20047;-73
2023/03/30 03:11:11;;;;;;;4.15;2.90;;;-4.70;99.90;;;;;;4991038;28;19932;-73
2023/03/30 03:13:41;;;;;;;5.30;3.50;;;-4.70;99.90;;;;;;5009989;28;20045;-73
2023/03/30 03:16:11;;;;;;;4.90;4.00;;;-4.70;99.90;;;;;;5000454;28;20054;-74
2023/03/30 03:18:41;;;;;;;4.20;3.42;;;-4.70;99.90;;;;;;5021859;28;20058;-72
2023/03/30 03:21:10;;;;;;;5.30;3.22;;;-4.70;99.90;;;;;;4999890;28;20046;-73
2023/03/30 03:23:38;;;;;;;5.40;3.13;;;-4.70;99.90;;;;;;5008139;28;20053;-73
2023/03/30 03:26:07;;;;;;;3.95;3.05;;;-4.70;99.90;;;;;;5024897;28;20132;-73
2023/03/30 03:28:35;;;;;;;6.07;3.00;;;-4.70;99.90;;;;;;5009915;28;20042;-73
2023/03/30 03:31:08;;;;;;;6.13;3.75;;;-4.80;99.90;;;;;;5021646;28;20537;-72
2023/03/30 03:33:36;;;;;;;6.90;3.53;;;-4.80;99.90;;;;;;5008145;28;20533;-73
2023/03/30 03:36:16;;;;;;;8.65;5.53;;;-4.80;99.90;;;;;;5006826;28;20085;-73
2023/03/30 03:38:49;;;;;;;9.77;4.65;;;-4.80;99.90;;;;;;4990117;28;20050;-73
2023/03/30 03:41:17;;;;;;;5.78;4.57;;;-4.80;99.90;;;;;;4994983;28;20515;-72
2023/03/30 03:43:45;;;;;;;6.22;4.75;;;-4.80;99.90;;;;;;5009470;28;20049;-73
2023/03/30 03:46:16;;;;;;;12.10;5.65;;;-4.70;99.90;;;;;;5005649;28;20101;-73
2023/03/30 03:48:45;;;;;;;7.45;5.40;;;-4.70;99.90;;;;;;4991823;28;20042;-73
2023/03/30 03:51:12;;;;;;;7.57;4.40;;;-4.70;99.90;;;;;;5008205;28;20081;-73
2023/03/30 03:53:40;;;;;;;18.35;4.75;;;-4.70;99.90;;;;;;5022166;28;20057;-76
2023/03/30 03:56:12;;;;;;;7.80;4.10;;;-4.60;99.90;;;;;;5008627;28;20077;-73
2023/03/30 03:58:40;;;;;;;8.85;4.60;;;-4.60;99.90;;;;;;5008885;28;20141;-73
2023/03/30 04:01:08;;;;;;;8.65;4.80;;;-4.60;99.90;;;;;;4990243;28;20057;-73
2023/03/30 04:03:37;;;;;;;8.23;5.05;;;-4.60;99.90;;;;;;5001163;28;20053;-75
2023/03/30 04:06:04;;;;;;;8.00;4.72;;;-4.60;99.90;;;;;;5010802;28;20124;-74
2023/03/30 04:08:33;;;;;;;6.85;4.70;;;-4.60;99.90;;;;;;5004892;28;20575;-73
2023/03/30 04:11:11;;;;;;;8.65;4.70;;;-4.60;99.90;;;;;;5010160;28;20046;-73
2023/03/30 04:14:05;;;;;;;7.45;4.95;;;-4.50;99.90;;;;;;4997501;28;20064;-73
2023/03/30 04:16:56;;;;;;;7.85;5.00;;;-4.40;99.90;;;;;;4995667;28;20050;-74
2023/03/30 04:19:52;;;;;;;5.07;4.47;;;-4.40;99.90;;;;;;4988405;28;20333;-71
2023/03/30 04:22:48;;;;;;;5.68;4.55;;;-4.30;99.90;;;;;;4991462;28;20345;-73
2023/03/30 04:25:24;;;;;;;6.75;5.07;;;-4.30;99.90;;;;;;5005529;28;20502;-73
2023/03/30 04:28:10;;;;;;;6.75;4.85;;;-4.20;99.90;;;;;;5012167;28;20042;-73
2023/03/30 04:31:01;;;;;;;7.55;4.45;;;-4.20;99.90;;;;;;4990687;28;20042;-73
2023/03/30 04:33:49;;;;;;;11.52;5.75;;;-4.20;99.90;;;;;;5002856;28;20430;-72
2023/03/30 04:36:37;;;;;;;7.65;4.85;;;-4.10;99.90;;;;;;4986026;28;20053;-73
2023/03/30 04:39:29;;;;;;;5.60;4.85;;;-4.10;99.90;;;;;;4997103;28;20149;-73
2023/03/30 04:41:56;;;;;;;6.18;4.97;;;-4.00;99.90;;;;;;5011033;28;20045;-73
2023/03/30 04:44:46;;;;;;;6.05;4.68;;;-3.90;99.90;;;;;;5009318;28;20423;-73
2023/03/30 04:47:26;;;;;;;9.82;5.05;;;-3.90;99.90;;;;;;5005918;28;20117;-75
2023/03/30 04:50:11;;;;;;;8.05;4.72;;;-3.80;99.90;;;;;;4998379;28;20235;-72
2023/03/30 04:52:58;;;;;;;7.22;4.72;;;-3.80;99.90;;;;;;4993856;28;20054;-73
2023/03/30 04:55:49;;;;;;;8.35;4.85;;;-3.70;99.90;;;;;;5012812;28;20052;-74
2023/03/30 04:58:43;;;;;;;5.88;4.80;;;-3.60;99.90;;;;;;4996466;28;20086;-73
2023/03/30 05:01:24;;;;;;;5.38;4.10;;;-3.60;99.90;;;;;;5014421;28;20141;-74
2023/03/30 05:04:20;;;;;;;5.28;4.15;;;-3.50;99.90;;;;;;4995717;28;20058;-74
2023/03/30 05:07:17;;;;;;;6.43;4.07;;;-3.50;99.90;;;;;;4983611;28;20042;-73
2023/03/30 05:10:09;;;;;;;8.25;4.00;;;-3.50;99.90;;;;;;5010692;28;20603;-73
2023/03/30 05:12:59;;;;;;;;;;;-3.40;99.90;;;;;;5009266;28;20053;-73
2023/03/30 05:15:54;;;;;;;8.05;4.40;;;-3.40;99.90;;;;;;5008731;28;19933;-72
2023/03/30 05:18:46;;;;;;;4.25;3.30;;;-3.40;99.90;;;;;;5013373;28;20046;-73
2023/03/30 05:21:33;;;;;;;11.10;5.05;;;-3.30;99.90;;;;;;5008492;28;21629;-73
2023/03/30 05:24:21;;;;;;;5.10;3.70;;;-3.30;99.90;;;;;;4994191;28;20054;-72
2023/03/30 05:27:03;;;;;;;3.72;3.30;;;-3.30;99.90;;;;;;5008934;28;20050;-72
2023/03/30 05:29:45;;;;;;;9.38;3.60;;;-3.30;99.90;;;;;;5010533;28;20062;-73
2023/03/30 05:32:38;;;;;;;7.22;3.80;;;-3.30;99.90;;;;;;4992106;28;20042;-72
2023/03/30 05:35:24;;;;;;;6.38;4.15;;;-3.30;99.90;;;;;;4993437;28;20097;-72
2023/03/30 05:38:18;;;;;;;6.07;3.90;;;-3.40;99.90;;;;;;4984318;28;20058;-71
2023/03/30 05:41:08;;;;;;;9.35;4.38;;;-3.30;99.90;;;;;;5007375;28;20049;-71
2023/03/30 05:43:56;;;;;;;6.20;4.10;;;-3.30;99.90;;;;;;5012657;28;20450;-73
2023/03/30 05:46:42;;;;;;;7.45;4.40;;;-3.30;99.90;;;;;;5013333;28;20076;-72
2023/03/30 05:49:28;;;;;;;5.82;4.10;;;-3.20;99.90;;;;;;5005330;28;20073;-74
2023/03/30 05:52:28;;;;;;;5.90;3.78;;;-3.20;99.90;;;;;;4996123;28;20051;-73
2023/03/30 05:55:15;;;;;;;6.75;3.70;;;-3.20;99.90;;;;;;5007995;28;20085;-74
2023/03/30 05:58:02;;;;;;;5.70;3.47;;;-3.10;99.90;;;;;;5003910;28;20065;-71
2023/03/30 06:00:47;;;;;;;4.18;3.60;;;-3.10;99.90;;;;;;5012525;28;20134;-73
2023/03/30 06:03:24;;;;;;;8.65;4.00;;;-3.00;99.90;;;;;;5005407;28;20054;-73
2023/03/30 06:05:54;;;;;;;6.80;3.50;;;-2.90;99.90;;;;;;5007533;28;20132;-71
2023/03/30 06:08:21;;;;;;;11.70;3.47;;;-2.90;99.90;;;;;;5005820;28;20057;-72
2023/03/30 06:10:53;;;;;;;8.30;3.90;;;-2.80;99.90;;;;;;5001198;28;20136;-73
2023/03/30 06:13:21;;;;;;;6.05;4.18;;;-2.70;99.90;;;;;;5007656;28;20053;-73
2023/03/30 06:15:53;;;;;;;4.00;3.60;;;-2.50;99.90;;;;;;4981808;28;20148;-71
2023/03/30 06:18:23;;;;;;;6.68;3.83;;;-2.20;99.90;;;;;;5007935;28;20437;-74
2023/03/30 06:20:57;;;;;;;7.28;3.80;;;-1.70;99.90;;;;;;4991387;28;20457;-73
2023/03/30 06:23:27;;;;;;;7.65;3.60;;;-0.90;99.90;;;;;;4989667;28;20376;-74
2023/03/30 06:26:01;;;;;;;8.77;4.18;;;-0.20;99.90;;;;;;4974863;28;20586;-75
2023/03/30 06:28:33;;;;;;;7.18;4.15;;;0.40;99.90;;;;;;5025463;28;20052;-73
2023/03/30 06:31:09;;;;;;;6.68;4.22;;;1.20;99.90;;;;;;5020795;28;20473;-73
2023/03/30 06:33:38;;;;;;;7.75;4.68;;;2.00;99.90;;;;;;5007841;28;20041;-74
2023/03/30 06:36:14;;;;;;;9.80;4.20;;;2.80;99.90;;;;;;5007519;28;20049;-73
2023/03/30 06:38:44;;;;;;;8.60;4.03;;;3.50;99.90;;;;;;5001443;28;20518;-73
2023/03/30 06:41:11;;;;;;;7.38;3.40;;;4.10;99.90;;;;;;5005301;28;20794;-74
2023/03/30 06:43:42;;;;;;;5.53;4.05;;;4.70;99.90;;;;;;5002496;28;21197;-73
2023/03/30 06:46:17;;;;;;;4.22;3.08;;;5.10;99.90;;;;;;5011764;28;20104;-72
2023/03/30 06:48:47;;;;;;;8.10;4.47;;;5.50;99.90;;;;;;5004597;28;20418;-74
2023/03/30 06:51:47;;;;;;;5.85;3.03;;;5.80;99.90;;;;;;5015928;28;20054;-73
2023/03/30 06:54:18;;;;;;;3.33;3.00;;;6.30;95.50;;;;;;5012306;28;20053;-73
2023/03/30 06:56:54;;;;;;;4.82;2.97;;;6.30;92.90;;;;;;4988418;28;20703;-73
2023/03/30 06:59:21;;;;;;;2.78;2.13;;;6.40;92.50;;;;;;5009680;28;20053;-75
2023/03/30 07:02:13;;;;;;;4.35;2.53;;;6.90;92.70;;;;;;5005117;28;20113;-76
2023/03/30 07:04:51;;;;;;;2.72;2.25;;;7.40;89.20;;;;;;5011118;28;20037;-75
2023/03/30 07:07:34;;;;;;;2.85;2.08;;;7.70;85.60;;;;;;5023644;28;20058;-75
2023/03/30 07:10:08;;;;;;;4.65;2.35;;;8.00;83.00;;;;;;5009206;28;20468;-75
2023/03/30 07:12:37;;;;;;;2.67;2.47;;;8.40;80.80;;;;;;4989393;28;20617;-76
2023/03/30 07:15:07;;;;;;;6.95;2.70;;;8.70;76.50;;;;;;5009725;28;20042;-76
2023/03/30 07:17:38;;;;;;;3.78;2.50;;;9.00;76.10;;;;;;5001516;28;20073;-76
2023/03/30 07:20:09;;;;;;;5.00;2.75;;;9.20;73.20;;;;;;5006839;28;20046;-76
2023/03/30 07:22:53;;;;;;;3.15;2.00;;;9.30;71.90;;;;;;5004631;28;20174;-76
2023/03/30 07:25:20;;;;;;;2.22;2.05;;;9.40;69.00;;;;;;5008772;28;20124;-76
2023/03/30 07:27:48;;;;;;;3.67;2.00;;;9.40;68.60;;;;;;4992315;28;20048;-76
2023/03/30 07:30:18;;;;;;;4.93;2.10;;;9.60;68.20;;;;;;5007066;28;20085;-77
2023/03/30 07:32:49;;;;;;;3.47;1.73;;;9.80;65.60;;;;;;4991142;28;20050;-77
2023/03/30 07:35:17;;;;;;;2.67;2.00;;;9.90;65.00;;;;;;4994914;28;20054;-77
2023/03/30 07:37:44;;;;;;;3.88;2.55;;;10.20;65.60;;;;;;4975784;28;20042;-76
2023/03/30 07:40:12;;;;;;;5.75;2.00;;;10.50;65.30;;;;;;4999811;28;20447;-76
2023/03/30 07:42:42;;;;;;;2.78;1.55;;;10.90;64.40;;;;;;4983880;28;20100;-74
2023/03/30 07:45:12;;;;;;;11.05;3.83;;;11.20;61.80;;;;;;5037374;28;20061;-75
2023/03/30 07:47:40;;;;;;;1.63;1.30;;;;;;;;;;5024295;28;20052;-73
2023/03/30 07:50:10;;;;;;;5.68;2.55;;;11.50;59.20;;;;;;4999670;28;20065;-74
2023/03/30 07:52:38;;;;;;;6.32;2.88;;;11.70;57.90;;;;;;5002604;28;20064;-74
2023/03/30 07:55:06;;;;;;;5.05;2.40;;;11.70;57.20;;;;;;5007375;28;20046;-77
2023/03/30 07:57:54;;;;;;;2.08;1.88;;;11.80;56.80;;;;;;4991545;28;20074;-75
2023/03/30 08:00:25;;;;;;;5.60;2.20;;;11.80;56.60;;;;;;5003182;28;20085;-74
2023/03/30 08:03:16;;;;;;;1.40;1.30;;;11.40;56.30;;;;;;5004457;28;20149;-75
2023/03/30 08:05:53;;;;;;;1.80;1.70;;;11.10;56.90;;;;;;5008026;28;20074;-76
2023/03/30 08:08:23;;;;;;;4.10;1.80;;;10.80;56.50;;;;;;5000841;28;20136;-76
2023/03/30 08:10:51;;;;;;;2.95;1.80;;;10.70;57.00;;;;;;5009615;28;20155;-77
2023/03/30 08:13:19;;;;;;;2.78;1.70;;;10.60;56.70;;;;;;5007157;28;20486;-75
2023/03/30 08:15:47;;;;;;;2.50;1.55;;;10.60;57.10;;;;;;5008902;28;20050;-76
2023/03/30 08:18:15;;;;;;;3.63;2.20;;;11.10;58.80;;;;;;5002404;28;20132;-78
2023/03/30 08:20:43;;;;;;;5.15;1.98;;;11.60;58.20;;;;;;5004419;28;20054;-77
2023/03/30 08:23:12;;;;;;;4.10;2.38;;;12.10;56.30;;;;;;5010633;28;20049;-75
2023/03/30 08:25:40;;;;;;;4.82;2.33;;;12.30;55.50;;;;;;5012074;28;20096;-75
2023/03/30 08:28:08;;;;;;;2.38;2.10;;;12.60;57.00;;;;;;5013688;28;20149;-74
2023/03/30 08:30:36;;;;;;;2.35;2.05;;;13.00;56.90;;;;;;5012968;28;20046;-77
2023/03/30 08:33:04;;;;;;;4.25;2.20;;;13.30;53.50;;;;;;5012113;28;20145;-76
2023/03/30 08:35:31;;;;;;;3.25;2.58;;;13.20;52.70;;;;;;5009989;28;20108;-75
2023/03/30 08:37:59;;;;;;;2.15;1.95;;;13.40;52.80;;;;;;5006540;28;20042;-75
2023/03/30 08:40:28;;;;;;;3.53;2.20;;;13.60;53.40;;;;;;5016880;28;20077;-75
2023/03/30 08:43:24;;;;;;;4.03;1.98;;;13.80;51.90;;;;;;5017222;28;20503;-77
2023/03/30 08:45:52;;;;;;;3.55;1.77;;;14.00;49.90;;;;;;5011504;28;20061;-77
2023/03/30 08:48:23;;;;;;;4.07;2.00;;;14.30;52.70;;;;;;5006291;28;20048;-76
2023/03/30 08:50:58;;;;;;;4.80;2.25;;;14.60;51.40;;;;;;5006765;28;20148;-76
2023/03/30 08:53:28;;;;;;;3.25;1.90;;;14.80;51.90;;;;;;5003542;28;20141;-78
2023/03/30 08:56:09;;;;;;;3.83;2.40;;;14.80;51.20;;;;;;5012905;28;20405;-76
2023/03/30 08:58:45;;;;;;;3.88;1.95;;;15.10;51.80;;;;;;4997581;28;20054;-78
2023/03/30 09:01:20;;;;;;;2.65;1.98;;;15.20;51.80;;;;;;5003166;28;20061;-78
2023/03/30 09:04:04;;;;;;;4.57;1.98;;;15.40;52.00;;;;;;5003412;28;20046;-76
2023/03/30 09:06:46;;;;;;;2.25;1.88;;;15.20;49.60;;;;;;4993345;28;20529;-78
2023/03/30 09:09:17;;;;;;;5.15;1.73;;;15.00;48.60;;;;;;5008904;28;20048;-77
2023/03/30 09:11:50;;;;;;;2.88;1.77;;;14.90;47.90;;;;;;5005995;28;20046;-79
2023/03/30 09:14:31;;;;;;;2.92;1.77;;;15.00;50.60;;;;;;5004437;28;20077;-80
2023/03/30 09:17:08;;;;;;;1.40;1.30;;;15.00;49.30;;;;;;5011715;28;20047;-75
2023/03/30 09:19:49;;;;;;;1.55;1.10;;;15.30;48.40;;;;;;5012096;28;20526;-79
2023/03/30 09:22:20;;;;;;;2.78;1.50;;;15.30;46.90;;;;;;5011672;28;20525;-75
2023/03/30 09:24:50;;;;;;;2.05;1.60;;;15.40;47.80;;;;;;4999447;28;20057;-77
2023/03/30 09:27:25;;;;;;;2.00;1.58;;;15.50;48.90;;;;;;5012076;28;20061;-77
2023/03/30 09:29:57;;;;;;;2.40;1.80;;;15.80;49.70;;;;;;5012641;28;20414;-76
2023/03/30 09:32:32;;;;;;;3.80;1.90;;;15.80;46.50;;;;;;5012105;28;20502;-74
2023/03/30 09:35:07;;;;;;;4.85;1.90;;;15.80;45.90;;;;;;5012071;28;20112;-75
2023/03/30 09:37:36;;;;;;;1.60;1.50;;;15.90;46.60;;;;;;5002329;28;20050;-77
2023/03/30 09:40:25;;;;;;;4.13;1.60;;;16.20;47.00;;;;;;5012025;28;20052;-79
2023/03/30 09:43:08;;;;;;;2.17;1.40;;;16.00;46.60;;;;;;5008416;28;20048;-78
2023/03/30 09:45:36;;;;;;;5.25;1.90;;;15.50;45.30;;;;;;5009081;28;20050;-77
2023/03/30 09:48:07;;;;;;;2.05;1.70;;;15.00;47.40;;;;;;5010178;28;20565;-78
2023/03/30 09:50:40;;;;;;;3.72;1.63;;;14.80;47.10;;;;;;5006487;28;20490;-80
2023/03/30 09:53:21;;;;;;;3.35;1.65;;;14.20;48.20;;;;;;5010952;28;20042;-77
2023/03/30 09:56:00;;;;;;;2.25;1.83;;;13.50;48.60;;;;;;5006423;28;20381;-79
2023/03/30 09:58:31;;;;;;;2.63;2.00;;;12.70;50.70;;;;;;5009376;28;20145;-79
2023/03/30 10:01:11;;;;;;;2.38;1.50;;;12.30;50.30;;;;;;5001570;28;20419;-77
2023/03/30 10:03:39;;;;;;;2.60;1.92;;;11.90;50.20;;;;;;5006580;28;20053;-79
2023/03/30 10:06:11;;;;;;;6.35;1.92;;;12.40;53.80;;;;;;5012041;28;20054;-79
2023/03/30 10:08:43;;;;;;;5.28;2.05;;;12.90;52.30;;;;;;5011044;28;20111;-80
2023/03/30 10:11:11;;;;;;;2.83;1.88;;;13.70;52.10;;;;;;5025390;28;20112;-80
2023/03/30 10:13:43;;;;;;;2.88;2.08;;;14.50;49.20;;;;;;5010276;28;20052;-83
2023/03/30 10:16:22;;;;;;;2.28;2.08;;;15.00;49.30;;;;;;5011059;28;20120;-80
2023/03/30 10:18:53;;;;;;;5.07;2.30;;;15.60;48.60;;;;;;5004882;28;20146;-83
2023/03/30 10:21:26;;;;;;;6.78;2.45;;;15.70;47.50;;;;;;5010457;28;20058;-77
2023/03/30 10:24:03;;;;;;;2.22;1.83;;;15.70;46.60;;;;;;5009867;28;20503;-78
2023/03/30 10:26:33;;;;;;;3.70;1.92;;;15.70;46.60;;;;;;4997059;28;20054;-81
2023/03/30 10:29:06;;;;;;;7.15;2.78;;;15.90;48.10;;;;;;4993513;28;20042;-79
2023/03/30 10:31:36;;;;;;;3.55;2.20;;;16.20;47.70;;;;;;5008130;28;20445;-78
2023/03/30 10:34:07;;;;;;;5.32;2.33;;;16.00;47.00;;;;;;5004465;28;20478;-78
2023/03/30 10:36:39;;;;;;;4.82;1.88;;;16.10;47.00;;;;;;5007489;28;20070;-78
2023/03/30 10:39:14;;;;;;;4.32;1.90;;;16.00;46.00;;;;;;5007305;28;20565;-80
2023/03/30 10:41:43;;;;;;;3.45;1.88;;;15.80;45.80;;;;;;5004294;28;20489;-80
2023/03/30 10:44:25;;;;;;;3.55;2.22;;;15.80;46.20;;;;;;5008439;28;20169;-77
2023/03/30 10:47:07;;;;;;;1.60;1.50;;;15.90;45.10;;;;;;5006687;28;20058;-79
2023/03/30 10:49:45;;;;;;;3.40;1.75;;;16.00;46.00;;;;;;5001275;28;20312;-76
2023/03/30 10:52:21;;;;;;;2.20;1.77;;;15.30;45.60;;;;;;5003189;28;20054;-78
2023/03/30 10:54:56;;;;;;;1.70;1.58;;;14.70;47.50;;;;;;5001307;28;20064;-78
2023/03/30 10:57:34;;;;;;;2.35;1.70;;;14.40;47.50;;;;;;5002169;28;20073;-78
2023/03/30 11:00:25;;;;;;;3.13;1.80;;;14.30;48.20;;;;;;5008408;28;20049;-77
2023/03/30 11:03:04;;;;;;;2.35;1.80;;;14.20;46.70;;;;;;4992194;28;20062;-74
2023/03/30 11:05:35;;;;;;;4.45;1.95;;;14.30;47.00;;;;;;4989820;28;20081;-75
2023/03/30 11:08:07;;;;;;;2.85;1.83;;;14.10;47.20;;;;;;5008846;28;20140;-75
2023/03/30 11:10:39;;;;;;;3.05;1.85;;;14.20;49.40;;;;;;4993221;28;20077;-76
2023/03/30 11:13:12;;;;;;;3.67;1.98;;;13.90;46.30;;;;;;5011235;28;20050;-75
2023/03/30 11:15:46;;;;;;;2.53;1.90;;;13.30;47.50;;;;;;5004328;28;20514;-75
2023/03/30 11:18:20;;;;;;;3.95;1.98;;;13.20;49.90;;;;;;4998893;28;20053;-75
2023/03/30 11:20:53;;;;;;;3.53;1.50;;;13.40;48.20;;;;;;5002670;28;20122;-79
2023/03/30 11:23:37;;;;;;;4.40;2.28;;;13.70;47.60;;;;;;5005472;28;20107;-78
2023/03/30 11:26:11;;;;;;;3.05;1.95;;;14.70;49.00;;;;;;4998633;28;20529;-79
2023/03/30 11:29:20;;;;;;;2.13;1.58;;;15.30;46.60;;;;;;5019764;28;20046;-79
2023/03/30 11:32:02;;;;;;;5.00;1.48;;;15.40;44.80;;;;;;5006392;28;20081;-77
2023/03/30 11:34:50;;;;;;;2.38;1.85;;;15.20;44.50;;;;;;5006376;28;20454;-76
2023/03/30 11:37:28;;;;;;;3.30;1.52;;;15.40;44.80;;;;;;5000618;28;20082;-74
2023/03/30 11:40:03;;;;;;;2.47;1.38;;;16.30;45.00;;;;;;5003770;28;20046;-79
2023/03/30 11:42:32;;;;;;;3.38;1.52;;;17.00;43.60;;;;;;4990521;28;20054;-80
2023/03/30 11:45:21;;;;;;;4.35;1.83;;;17.80;42.80;;;;;;4985801;28;20045;-78
2023/03/30 11:48:21;;;;;;;2.40;1.20;;;18.20;41.10;;;;;;5008624;28;20050;-75
2023/03/30 11:51:11;;;;;;;5.70;1.75;;;18.40;40.80;;;;;;4991426;28;20120;-76
2023/03/30 11:53:52;;;;;;;2.40;1.30;;;18.20;40.10;;;;;;5009151;28;20069;-77
2023/03/30 11:56:31;;;;;;;1.98;1.42;;;18.10;41.50;;;;;;5007663;28;20528;-76
2023/03/30 11:59:05;;;;;;;6.13;1.50;;;18.40;40.80;;;;;;5005339;28;20049;-78
2023/03/30 12:01:52;;;;;;;1.60;1.13;;;18.10;40.50;;;;;;5009464;28;20060;-80
2023/03/30 12:04:27;;;;;;;2.65;1.08;;;17.70;42.50;;;;;;5004292;28;20140;-75
2023/03/30 12:07:00;;;;;;;2.75;1.35;;;18.00;42.50;;;;;;5019438;28;20054;-76
2023/03/30 12:09:29;;;;;;;;;;;18.20;40.70;;;;;;5002332;28;20667;-76
2023/03/30 12:12:10;;;;;;;3.03;1.38;;;18.50;40.90;;;;;;5001941;28;19926;-74
2023/03/30 12:14:53;;;;;;;3.45;1.30;;;18.70;39.00;;;;;;5006121;28;20104;-75
2023/03/30 12:17:42;;;;;;;2.45;1.10;;;18.70;38.70;;;;;;5005845;28;20077;-75
2023/03/30 12:20:34;;;;;;;1.65;1.10;;;18.60;37.80;;;;;;5008625;28;20549;-77
2023/03/30 12:23:20;;;;;;;2.83;1.40;;;18.00;38.50;;;;;;5006048;28;20159;-78
2023/03/30 12:26:06;;;;;;;6.07;1.25;;;17.20;39.60;;;;;;5006213;28;20058;-78
2023/03/30 12:28:47;;;;;;;2.47;1.60;;;16.20;40.40;;;;;;5010857;28;20054;-78
2023/03/30 12:31:16;;;;;;;1.85;1.10;;;15.20;42.50;;;;;;4988585;28;20050;-78
2023/03/30 12:33:49;;;;;;;2.05;1.13;;;14.50;42.20;;;;;;4998712;28;20046;-78
2023/03/30 12:36:36;;;;;;;3.70;1.58;;;14.20;43.00;;;;;;5025047;28;20049;-79
2023/03/30 12:39:10;;;;;;;2.70;1.20;;;14.10;45.10;;;;;;5009578;28;20056;-77
2023/03/30 12:41:43;;;;;;;2.05;1.40;;;14.00;44.70;;;;;;5010546;28;20056;-76
2023/03/30 12:44:41;;;;;;;4.32;1.73;;;14.30;46.20;;;;;;5005625;28;20054;-78
2023/03/30 12:47:48;;;;;;;2.47;1.45;;;14.20;44.40;;;;;;4988647;28;20050;-72
2023/03/30 12:50:39;;;;;;;4.65;1.30;;;13.20;44.50;;;;;;5002412;28;20072;-80
2023/03/30 12:53:52;;;;;;;2.63;1.50;;;12.40;47.90;;;;;;5004320;28;20057;-80
2023/03/30 12:56:32;;;;;;;4.03;1.33;;;11.90;46.60;;;;;;5005508;28;20074;-75
2023/03/30 12:59:35;;;;;;;3.90;1.60;;;11.30;48.20;;;;;;4999511;28;20403;-79
2023/03/30 13:02:30;;;;;;;2.55;1.63;;;10.70;48.20;;;;;;5003523;28;20084;-78
2023/03/30 13:04:58;;;;;;;2.80;1.45;;;9.90;50.40;;;;;;4998015;28;20050;-78
2023/03/30 13:07:30;;;;;;;7.63;1.58;;;9.20;51.20;;;;;;5005497;28;20046;-76
2023/03/30 13:10:00;;;;;;;4.13;1.60;;;8.80;51.40;;;;;;4997272;28;20736;-73
2023/03/30 13:12:39;;;;;;;4.00;1.90;;;8.60;51.80;;;;;;4992470;28;20089;-74
2023/03/30 13:15:41;;;;;;;4.10;1.35;;;8.50;52.90;;;;;;4993670;28;20069;-74
2023/03/30 13:18:41;;;;;;;3.03;2.40;;;8.00;54.30;;;;;;5002755;28;20050;-74
2023/03/30 13:21:23;;;;;;;3.38;1.88;;;7.50;54.60;;;;;;5006695;28;20064;-74
2023/03/30 13:24:24;;;;;;;3.35;1.95;;;7.20;57.20;;;;;;4994064;28;20051;-73
2023/03/30 13:26:54;;;;;;;6.20;1.80;;;6.90;57.00;;;;;;5001461;28;20057;-74
2023/03/30 13:29:29;;;;;;;5.32;1.85;;;6.70;57.90;;;;;;5009576;28;20053;-73
2023/03/30 13:32:12;;;;;;;4.40;2.00;;;6.50;58.20;;;;;;5020093;28;20481;-73
2023/03/30 13:35:03;;;;;;;6.70;2.58;;;6.30;57.20;;;;;;5008581;28;20089;-75
2023/03/30 13:38:01;;;;;;;9.30;2.75;;;6.10;59.50;;;;;;4992793;28;20054;-74
2023/03/30 13:40:31;;;;;;;4.60;2.78;;;6.00;59.20;;;;;;4981258;28;20050;-77
2023/03/30 13:43:09;;;;;;;5.05;2.50;;;5.80;58.40;;;;;;5006789;28;20050;-78